createdAt,value
2022-11-23T00:02:47.220Z,97031.59
2022-11-23T00:07:49.296Z,97026.91
2022-11-23T00:12:51.281Z,97030.56
2022-11-23T00:17:53.100Z,97025.75
2022-11-23T00:22:54.991Z,97031.81
2022-11-23T00:27:57.033Z,97031.97
2022-11-23T00:32:59.057Z,97031.44
2022-11-23T00:38:01.004Z,97028.06
2022-11-23T00:43:02.865Z,97029.81
2022-11-23T00:48:04.957Z,97023.91
2022-11-23T00:53:06.780Z,97027.41
2022-11-23T00:58:08.844Z,97036.84
2022-11-23T01:03:10.716Z,97033.63
2022-11-23T01:08:12.656Z,97032.00
2022-11-23T01:13:14.351Z,97031.63
2022-11-23T01:18:16.192Z,97039.47
2022-11-23T01:23:18.221Z,97039.63
2022-11-23T01:28:20.006Z,97026.16
2022-11-23T01:33:24.956Z,97032.34
2022-11-23T01:38:26.768Z,97021.97
2022-11-23T01:43:28.565Z,97025.34
2022-11-23T01:48:40.911Z,97026.94
2022-11-23T01:53:43.628Z,97021.97
2022-11-23T01:58:49.930Z,97021.44
2022-11-23T02:03:55.169Z,97023.50
2022-11-23T02:08:57.814Z,97022.16
2022-11-23T02:14:00.632Z,97026.75
2022-11-23T02:19:12.930Z,97038.91
2022-11-23T02:24:25.554Z,97040.66
2022-11-23T02:29:29.640Z,97043.09
2022-11-23T02:34:35.764Z,97043.47
2022-11-23T02:39:52.319Z,97036.59
2022-11-23T02:45:04.469Z,97047.50
2022-11-23T02:50:06.659Z,97045.59
2022-11-23T02:55:09.471Z,97047.06
2022-11-23T03:00:12.219Z,97057.03
2022-11-23T03:05:14.209Z,97058.63
2022-11-23T03:10:16.232Z,97064.41
2022-11-23T03:15:19.803Z,97066.84
2022-11-23T03:20:22.685Z,97078.41
2022-11-23T03:25:26.249Z,97075.56
2022-11-23T03:30:31.836Z,97071.41
2022-11-23T03:35:34.412Z,97072.72
2022-11-23T03:41:05.437Z,97067.41
2022-11-23T03:46:20.657Z,97069.38
2022-11-23T03:51:23.352Z,97065.59
2022-11-23T03:56:25.431Z,97077.16
2022-11-23T04:01:27.377Z,97073.66
2022-11-23T04:06:35.381Z,97067.56
2022-11-23T04:11:49.216Z,97060.69
2022-11-23T04:16:50.989Z,97059.72
2022-11-23T04:21:52.882Z,97067.41
2022-11-23T04:26:56.077Z,97063.09
2022-11-23T04:31:59.209Z,97068.38
2022-11-23T04:37:01.166Z,97071.75
2022-11-23T04:42:12.212Z,97065.00
2022-11-23T04:47:14.446Z,97067.72
2022-11-23T04:52:16.739Z,97070.41
2022-11-23T04:57:23.094Z,97069.75
2022-11-23T05:02:27.064Z,97070.84
2022-11-23T05:07:38.944Z,97071.56
2022-11-23T05:12:41.015Z,97068.63
2022-11-23T05:17:44.208Z,97067.03
2022-11-23T05:22:54.396Z,97077.56
2022-11-23T05:28:03.718Z,97082.81
2022-11-23T05:33:14.355Z,97090.78
2022-11-23T05:38:17.883Z,97087.72
2022-11-23T05:43:19.804Z,97089.75
2022-11-23T05:48:23.037Z,97091.78
2022-11-23T05:53:32.084Z,97087.91
2022-11-23T05:59:00.278Z,97084.69
2022-11-23T06:04:02.493Z,97083.06
2022-11-23T06:09:11.202Z,97086.56
2022-11-23T06:14:15.493Z,97085.25
2022-11-23T06:19:20.800Z,97093.06
2022-11-23T06:24:24.622Z,97096.28
2022-11-23T06:29:47.392Z,97107.34
2022-11-23T06:34:49.408Z,97112.47
2022-11-23T06:39:51.316Z,97111.53
2022-11-23T06:44:53.559Z,97110.56
2022-11-23T06:49:57.621Z,97104.63
2022-11-23T06:55:03.449Z,97108.00
2022-11-23T07:00:06.397Z,97111.38
2022-11-23T07:05:12.454Z,97127.56
2022-11-23T07:10:15.231Z,97128.34
2022-11-23T07:15:23.341Z,97125.78
2022-11-23T07:20:27.185Z,97123.22
2022-11-23T07:25:31.867Z,97132.69
2022-11-23T07:30:36.564Z,97140.34
2022-11-23T07:35:41.112Z,97137.66
2022-11-23T07:40:44.360Z,97142.78
2022-11-23T07:46:00.349Z,97142.13
2022-11-23T07:51:02.231Z,97140.63
2022-11-23T07:56:04.259Z,97139.03
2022-11-23T08:01:09.122Z,97137.41
2022-11-23T08:06:12.147Z,97148.31
2022-11-23T08:11:18.825Z,97144.53
2022-11-23T08:16:20.655Z,97141.13
2022-11-23T08:21:22.488Z,97143.78
2022-11-23T08:26:24.343Z,97139.06
2022-11-23T08:31:26.380Z,97138.63
2022-11-23T08:36:28.177Z,97138.19
2022-11-23T08:41:29.942Z,97140.63
2022-11-23T08:46:31.831Z,97135.72
2022-11-23T08:51:34.304Z,97144.97
2022-11-23T08:56:36.175Z,97144.94
2022-11-23T09:01:38.161Z,97136.38
2022-11-23T09:06:40.140Z,97137.41
2022-11-23T09:11:41.987Z,97144.88
2022-11-23T09:16:43.734Z,97150.75
2022-11-23T09:21:45.858Z,97152.59
2022-11-23T09:26:47.683Z,97146.22
2022-11-23T09:31:49.434Z,97148.69
2022-11-23T09:36:51.243Z,97141.06
2022-11-23T09:42:40.826Z,97132.19
2022-11-23T09:48:20.209Z,97133.69
2022-11-23T09:53:44.883Z,97130.38
2022-11-23T09:58:47.287Z,97126.59
2022-11-23T10:03:49.727Z,97129.44
2022-11-23T10:09:10.709Z,97130.47
2022-11-23T10:14:37.265Z,97115.94
2022-11-23T10:20:25.772Z,97112.31
2022-11-23T10:25:39.233Z,97115.75
2022-11-23T10:30:42.818Z,97110.59
2022-11-23T10:35:44.705Z,97101.94
2022-11-23T10:41:10.974Z,97097.13
2022-11-23T10:46:33.873Z,97098.75
2022-11-23T10:51:36.469Z,97097.47
2022-11-23T10:56:50.058Z,97090.72
2022-11-23T11:02:10.633Z,97099.06
2022-11-23T11:07:29.444Z,97095.84
2022-11-23T11:12:35.031Z,97091.03
2022-11-23T11:17:38.122Z,97089.41
2022-11-23T11:22:46.218Z,97094.28
2022-11-23T11:27:53.910Z,97098.13
2022-11-23T11:33:18.903Z,97089.28
2022-11-23T11:38:31.645Z,97089.13
2022-11-23T11:43:41.519Z,97091.06
2022-11-23T11:48:59.894Z,97095.06
2022-11-23T11:54:34.543Z,97086.53
2022-11-23T11:59:45.737Z,97089.59
2022-11-23T12:05:02.791Z,97088.31
2022-11-23T12:10:28.121Z,97082.03
2022-11-23T12:15:53.379Z,97081.84
2022-11-23T12:21:26.502Z,97085.72
2022-11-23T12:26:58.954Z,97082.97
2022-11-23T12:32:45.374Z,97079.59
2022-11-23T12:38:26.183Z,97080.72
2022-11-23T12:43:37.142Z,97081.84
2022-11-23T12:49:12.082Z,97078.81
2022-11-23T12:54:34.861Z,97083.63
2022-11-23T13:00:01.024Z,97081.72
2022-11-23T13:05:28.126Z,97084.94
2022-11-23T13:10:38.643Z,97083.66
2022-11-23T13:16:08.942Z,97093.31
2022-11-23T13:21:25.696Z,97093.63
2022-11-23T13:26:31.585Z,97087.16
2022-11-23T13:31:36.104Z,97094.91
2022-11-23T13:37:11.108Z,97092.63
2022-11-23T13:42:06.068Z,97093.94
2022-11-23T13:47:20.300Z,97087.50
2022-11-23T13:52:25.193Z,97094.72
2022-11-23T13:57:27.286Z,97089.91
2022-11-23T14:02:31.289Z,97095.22
2022-11-23T14:07:47.181Z,97088.63
2022-11-23T14:12:56.962Z,97097.47
2022-11-23T14:18:30.287Z,97089.09
2022-11-23T14:23:53.359Z,97098.91
2022-11-23T14:29:13.186Z,97104.22
2022-11-23T14:34:35.397Z,97101.31
2022-11-23T14:39:59.834Z,97102.75
2022-11-23T14:45:05.101Z,97100.00
2022-11-23T14:50:29.920Z,97097.25
2022-11-23T14:55:33.040Z,97104.00
2022-11-23T15:00:41.656Z,97100.31
2022-11-23T15:05:52.777Z,97102.84
2022-11-23T15:11:13.193Z,97113.28
2022-11-23T15:16:17.798Z,97110.66
2022-11-23T15:21:27.795Z,97113.06
2022-11-23T15:26:49.094Z,97106.91
2022-11-23T15:32:14.227Z,97116.06
2022-11-23T15:37:14.920Z,97124.38
2022-11-23T15:42:22.789Z,97124.03
2022-11-23T15:47:31.138Z,97128.81
2022-11-23T15:52:37.845Z,97137.78
2022-11-23T15:57:40.838Z,97140.50
2022-11-23T16:02:43.405Z,97139.03
2022-11-23T16:08:02.658Z,97149.47
2022-11-23T16:13:06.358Z,97148.97
2022-11-23T16:18:17.474Z,97150.38
2022-11-23T16:23:26.034Z,97151.63
2022-11-23T16:28:36.705Z,97150.97
2022-11-23T16:33:38.825Z,97145.19
2022-11-23T16:38:40.618Z,97157.38
2022-11-23T16:43:42.469Z,97153.19
2022-11-23T16:48:44.419Z,97158.34
2022-11-23T16:54:12.580Z,97149.00
2022-11-23T16:59:20.483Z,97144.03
2022-11-23T17:04:22.397Z,97153.66
2022-11-23T17:09:24.224Z,97146.91
2022-11-23T17:14:29.592Z,97150.28
2022-11-23T17:19:32.423Z,97136.63
2022-11-23T17:24:34.900Z,97139.03
2022-11-23T17:29:41.642Z,97140.81
2022-11-23T17:34:44.278Z,97137.59
2022-11-23T17:39:47.615Z,97145.44
2022-11-23T17:44:49.609Z,97159.06
2022-11-23T17:49:52.346Z,97157.63
2022-11-23T17:54:54.498Z,97158.41
2022-11-23T18:00:00.488Z,97164.66
2022-11-23T18:05:24.079Z,97163.03
2022-11-23T18:10:25.964Z,97167.53
2022-11-23T18:15:28.318Z,97165.25
2022-11-23T18:20:30.003Z,97166.34
2022-11-23T18:25:32.275Z,97168.41
2022-11-23T18:30:34.043Z,97171.28
2022-11-23T18:35:35.797Z,97174.78
2022-11-23T18:40:37.611Z,97169.66
2022-11-23T18:45:39.523Z,97179.28
2022-11-23T18:50:41.567Z,97175.91
2022-11-23T18:55:43.365Z,97177.81
2022-11-23T19:00:45.431Z,97168.63
2022-11-23T19:05:47.245Z,97172.44
2022-11-23T19:10:50.054Z,97174.66
2022-11-23T19:15:51.828Z,97177.81
2022-11-23T19:20:54.029Z,97175.81
2022-11-23T19:26:01.468Z,97182.06
2022-11-23T19:31:21.110Z,97197.59
2022-11-23T19:36:25.323Z,97209.75
2022-11-23T19:41:30.462Z,97200.44
2022-11-23T19:46:33.127Z,97213.41
2022-11-23T19:51:35.150Z,97215.84
2022-11-23T19:56:40.053Z,97215.84
2022-11-23T20:01:41.899Z,97207.19
2022-11-23T20:06:43.963Z,97217.44
2022-11-23T20:11:50.342Z,97214.88
2022-11-23T20:16:53.320Z,97220.16
2022-11-23T20:21:55.534Z,97220.16
2022-11-23T20:26:57.402Z,97212.59
2022-11-23T20:31:59.329Z,97217.06
2022-11-23T20:37:01.486Z,97219.13
2022-11-23T20:42:03.483Z,97220.22
2022-11-23T20:47:05.430Z,97224.81
2022-11-23T20:52:07.231Z,97226.22
2022-11-23T20:57:09.290Z,97235.13
2022-11-23T21:02:11.187Z,97233.53
2022-11-23T21:07:13.072Z,97247.44
2022-11-23T21:12:50.246Z,97256.22
2022-11-23T21:17:52.373Z,97255.69
2022-11-23T21:22:54.126Z,97263.66
2022-11-23T21:27:55.993Z,97263.28
2022-11-23T21:32:57.778Z,97268.69
2022-11-23T21:38:00.570Z,97268.84
2022-11-23T21:43:02.445Z,97268.84
2022-11-23T21:48:04.622Z,97280.69
2022-11-23T21:53:06.369Z,97283.25
2022-11-23T21:58:08.130Z,97284.88
2022-11-23T22:03:11.537Z,97282.19
2022-11-23T22:08:28.915Z,97281.38
2022-11-23T22:13:36.622Z,97284.06
2022-11-23T22:18:39.404Z,97291.91
2022-11-23T22:23:41.383Z,97299.88
2022-11-23T22:28:47.225Z,97303.38
2022-11-23T22:33:49.797Z,97307.84
2022-11-23T22:39:01.032Z,97309.72
2022-11-23T22:44:06.081Z,97317.69
2022-11-23T22:49:08.043Z,97320.41
2022-11-23T22:54:10.153Z,97320.53
2022-11-23T22:59:12.306Z,97324.72
2022-11-23T23:04:14.132Z,97332.41
2022-11-23T23:09:16.079Z,97341.47
2022-11-23T23:14:18.356Z,97335.00
2022-11-23T23:19:20.569Z,97339.72
2022-11-23T23:24:22.259Z,97348.75
2022-11-23T23:29:24.499Z,97346.47
2022-11-23T23:34:26.281Z,97355.38
2022-11-23T23:39:28.045Z,97345.41
2022-11-23T23:44:29.848Z,97349.16
2022-11-23T23:49:31.768Z,97343.50
2022-11-23T23:54:34.070Z,97349.72
2022-11-23T23:59:36.340Z,97349.03
